In Rescue
 
Open Full Screen Window  High Contrast Mode
January 29, 2020 12:36 AM EST
Weather Information
Wind Direction
  ---
Wind Speed
  00 kt (0 mph)
Wind Gust
  00 kt (0 mph)
Altimeter
30.09 in
Visibility
10 SM
Temperature
00° C
32° F
Dewpoint
-02° C
28° F
Humidity
87%
1hr Rain Fall
00.00 in.
24hr Rain Fall
00.00 in.
Sky Condition
Overcast @ 2,500 ft
MVFR

METAR KMRT 290536Z AUTO 00000KT 10SM OVC025 00/M02 A3009 RMK AO2 T10051020

FAA Disclaimer: The data displayed is for advisory purposes only and is not to be used for flight planning or operations.